Weather reports worldwide

Advertisment
Tibenham Airfield, United Kingdom (3931): temperature & dewpoint: 21.02.2020 14:00:00 - 27.02.2020 14:00:00 (GMT)Tibenham Airfield, United Kingdom (3931): temperature -20cm & temperature -100cm: 21.02.2020 14:00:00 - 27.02.2020 14:00:00 (GMT)Tibenham Airfield, United Kingdom (3931): wind speed & gusts: 21.02.2020 14:00:00 - 27.02.2020 14:00:00 (GMT)Tibenham Airfield, United Kingdom (3931): wind direction: 21.02.2020 14:00:00 - 27.02.2020 14:00:00 (GMT)Tibenham Airfield, United Kingdom (3931): reduced air pressure: 21.02.2020 14:00:00 - 27.02.2020 14:00:00 (GMT)Tibenham Airfield, United Kingdom (3931): sunshine duration: 21.02.2020 14:00:00 - 27.02.2020 14:00:00 (GMT)Tibenham Airfield, United Kingdom (3931): precipitation: 21.02.2020 14:00:00 - 27.02.2020 14:00:00 (GMT)
Date & Time tt [°C] td [°C] tt -20cm [°C] tt -100cm [°C] ff [km/h] ff [kn] fx [km/h] fx [kn] dd ppp [hPa] sd [min] rr [mm]
27.02.2020 14:00:00 5,3 2,6 - - 24 13 - - NW 999,4 18 0,0
27.02.2020 13:00:00 3,3 2,1 - - 24 13 - - NW 998,5 0 0,0
27.02.2020 12:00:00 2,4 2,0 - - 15 8 - - WNW 997,7 0 0,0
27.02.2020 11:00:00 1,6 1,5 - - 11 6 - - NW 997,0 0 0,6
27.02.2020 10:00:00 1,0 0,8 - - 8 4 - - NNW 996,8 0 0,8
27.02.2020 09:00:00 0,9 0,3 5,7 7,2 2 1 - - NNE 996,8 0 0,8
27.02.2020 08:00:00 1,5 0,8 - - 5 3 - - SE 996,8 0 0,4
27.02.2020 07:00:00 1,8 0,7 - - 5 3 - - S 997,3 0 0,2
27.02.2020 06:00:00 2,2 0,5 - - 8 4 - - S 998,1 0 0,0
27.02.2020 05:00:00 1,8 0,2 - - 8 4 - - S 998,7 0 0,0
27.02.2020 04:00:00 1,8 0,1 - - 9 5 - - S 999,9 0 0,0
27.02.2020 03:00:00 1,8 -0,1 - - 11 6 - - S 1001,1 0 0,0
27.02.2020 02:00:00 1,8 -0,3 - - 11 6 - - SSW 1002,4 0 0,0
27.02.2020 01:00:00 1,6 -0,6 - - 11 6 - - S 1003,4 0 0,0
27.02.2020 00:00:00 1,8 -0,5 - - 13 7 - - SSW 1004,2 - 0,0
26.02.2020 23:00:00 1,5 -0,8 - - 15 8 - - SW 1004,8 0 0,0
26.02.2020 22:00:00 1,1 -0,9 - - 21 11 - - WSW 1005,2 0 0,0
26.02.2020 21:00:00 1,0 -0,3 - - 13 7 - - SW 1005,8 0 0,0
26.02.2020 20:00:00 1,1 -0,7 - - 11 6 - - WSW 1005,9 0 0,0
26.02.2020 19:00:00 2,6 -0,7 - - 15 8 - - W 1005,8 0 0,0
26.02.2020 18:00:00 4,5 -0,2 - - 22 12 - - W 1004,9 0 0,0
26.02.2020 17:00:00 4,9 2,0 - - 18 10 - - W 1004,4 12 0,0
26.02.2020 16:00:00 5,2 1,4 - - 29 16 - - W 1003,9 18 0,0
26.02.2020 15:00:00 6,6 1,8 - - 26 14 - - W 1003,0 24 0,0
26.02.2020 14:00:00 6,1 1,7 - - 26 14 - - W 1002,7 18 0,0
26.02.2020 13:00:00 5,4 0,9 - - 26 14 - - WNW 1002,3 0 0,0
26.02.2020 12:00:00 4,8 1,2 - - 26 14 - - WNW 1001,8 0 0,0
26.02.2020 11:00:00 4,2 1,2 - - 28 15 46 25 W 1001,0 0 0,0
26.02.2020 10:00:00 4,2 2,1 - - 22 12 - - W 1000,2 6 0,0
26.02.2020 09:00:00 2,6 1,0 6,2 7,2 24 13 - - W 999,5 12 0,0
26.02.2020 08:00:00 1,7 0,3 - - 24 13 - - W 998,3 12 0,0
26.02.2020 07:00:00 1,3 0,1 - - 26 14 - - W 997,1 0 0,0
26.02.2020 06:00:00 1,8 0,6 - - 24 13 - - W 996,3 0 0,0
26.02.2020 05:00:00 2,0 0,7 - - 29 16 - - W 995,7 0 0,0
26.02.2020 04:00:00 2,1 1,2 - - 24 13 - - W 995,1 0 0,2
26.02.2020 03:00:00 0,9 0,5 - - 26 14 - - W 994,8 0 0,2
26.02.2020 02:00:00 2,3 1,2 - - 28 15 - - W 994,5 0 0,0
26.02.2020 01:00:00 2,5 1,4 - - 26 14 - - W 994,1 0 0,0
26.02.2020 00:00:00 2,6 1,4 - - 26 14 - - W 993,4 - 0,0
25.02.2020 23:00:00 2,4 1,3 - - 22 12 - - W 993,2 0 0,0
25.02.2020 22:00:00 3,1 1,6 - - 22 12 - - W 992,8 0 0,0
25.02.2020 21:00:00 3,2 1,8 - - 26 14 - - WSW 992,8 0 0,0
25.02.2020 20:00:00 2,9 2,0 - - 16 9 - - SW 993,0 0 0,0
25.02.2020 19:00:00 2,7 1,5 - - 13 7 - - SW 993,3 0 0,0
25.02.2020 18:00:00 3,5 2,1 - - 13 7 - - SSW 993,8 0 0,0
25.02.2020 17:00:00 2,8 1,9 - - 5 3 - - SSW 994,6 0 0,2
25.02.2020 16:00:00 2,4 1,4 - - 15 8 - - NNW 995,5 0 0,2
25.02.2020 15:00:00 6,9 1,4 - - 26 14 - - WSW 995,3 36 0,0
25.02.2020 14:00:00 7,1 0,6 - - 31 17 - - WSW 996,3 18 0,0
25.02.2020 13:00:00 6,8 0,0 - - 34 18 - - W 997,2 6 0,0
25.02.2020 12:00:00 6,6 1,1 - - 31 17 - - W 997,9 30 0,0
25.02.2020 11:00:00 6,8 1,0 - - 34 18 48 26 W 998,1 24 0,0
25.02.2020 10:00:00 5,7 2,3 - - 31 17 54 29 W 998,6 30 0,0
25.02.2020 09:00:00 4,8 1,9 6,9 7,2 28 15 - - WSW 999,1 0 0,0
25.02.2020 08:00:00 4,0 1,3 - - 29 16 - - WSW 999,3 24 0,0
25.02.2020 07:00:00 3,1 0,8 - - 26 14 - - WSW 999,7 0 0,0
25.02.2020 06:00:00 3,4 1,5 - - 26 14 - - WSW 1000,2 0 0,0
25.02.2020 05:00:00 4,0 1,8 - - 28 15 - - WSW 1000,5 0 0,0
25.02.2020 04:00:00 4,5 2,0 - - 26 14 - - W 1000,7 0 0,0
25.02.2020 03:00:00 5,3 2,4 - - 24 13 46 25 WSW 1001,0 0 0,0
25.02.2020 02:00:00 5,4 2,1 - - 31 17 - - W 1001,2 0 0,0
25.02.2020 01:00:00 5,2 1,9 - - 29 16 - - WSW 1001,5 0 0,0
25.02.2020 00:00:00 5,9 1,8 - - 31 17 - - W 1001,5 - 0,0
24.02.2020 23:00:00 6,6 1,3 - - 35 19 48 26 W 1001,4 0 0,0
24.02.2020 22:00:00 6,8 1,0 - - 28 15 65 35 W 1001,6 0 0,0
24.02.2020 21:00:00 8,4 3,3 - - 42 23 70 38 W 1000,8 0 0,0
24.02.2020 20:00:00 9,8 7,2 - - 41 22 65 35 WSW 999,9 0 0,0
24.02.2020 19:00:00 10,3 7,5 - - 42 23 67 36 WSW 999,4 0 0,0
24.02.2020 18:00:00 11,0 7,9 - - 54 29 68 37 WSW 998,8 0 0,0
24.02.2020 17:00:00 11,3 9,1 - - 50 27 67 36 WSW 999,0 0 0,0
24.02.2020 16:00:00 10,9 9,8 - - 41 22 55 30 WSW 999,8 0 0,2
24.02.2020 15:00:00 11,3 9,4 - - 35 19 55 30 SW 1000,0 0 0,0
24.02.2020 14:00:00 10,9 9,5 - - 34 18 52 28 SW 1001,4 0 0,2
24.02.2020 13:00:00 10,7 9,6 - - 37 20 54 29 SW 1002,2 0 0,6
24.02.2020 12:00:00 10,5 9,7 - - 34 18 52 28 SW 1003,2 0 0,6
24.02.2020 11:00:00 9,7 8,9 - - 29 16 - - SW 1004,4 0 1,2
24.02.2020 10:00:00 8,1 7,9 - - 22 12 - - SSW 1005,6 0 1,0
24.02.2020 09:00:00 6,2 6,1 6,9 7,2 21 11 - - S 1007,6 0 0,2
24.02.2020 08:00:00 5,6 5,3 - - 34 18 50 27 SSE 1009,8 0 0,2
24.02.2020 07:00:00 4,5 4,1 - - 28 15 46 25 SSE 1012,3 0 0,6
24.02.2020 06:00:00 3,7 2,9 - - 16 9 - - SSE 1015,2 0 0,2
24.02.2020 05:00:00 4,5 0,8 - - 13 7 - - SSE 1017,2 0 0,0
24.02.2020 04:00:00 4,1 0,8 - - 11 6 - - SSE 1018,6 0 0,0
24.02.2020 03:00:00 4,1 0,8 - - 11 6 - - S 1020,7 0 0,0
24.02.2020 02:00:00 3,9 0,3 - - 4 2 - - SW 1021,7 0 0,0
24.02.2020 01:00:00 4,0 0,4 - - 8 4 - - SW 1022,5 0 0,0
24.02.2020 00:00:00 3,1 0,4 - - 11 6 - - SW 1022,8 - 0,0
23.02.2020 23:00:00 2,8 -0,1 - - 15 8 - - WSW 1022,8 0 0,0
23.02.2020 22:00:00 3,4 0,3 - - 15 8 - - WSW 1022,8 0 0,0
23.02.2020 21:00:00 3,9 -0,5 - - 16 9 - - W 1022,3 0 0,0
23.02.2020 20:00:00 4,8 -0,2 - - 16 9 - - W 1021,8 0 0,0
23.02.2020 19:00:00 5,9 -1,2 - - 22 12 - - WNW 1021,1 0 0,0
23.02.2020 18:00:00 6,1 -0,8 - - 26 14 - - WNW 1019,5 0 0,0
23.02.2020 17:00:00 6,9 -1,2 - - 26 14 57 31 WNW 1017,6 6 0,0
23.02.2020 16:00:00 8,4 1,5 - - 29 16 55 30 WNW 1016,2 54 0,0
23.02.2020 15:00:00 9,2 2,4 - - 35 19 68 37 WNW 1014,6 42 0,0
23.02.2020 14:00:00 9,5 3,6 - - 42 23 68 37 WNW 1012,5 18 0,0
23.02.2020 13:00:00 11,5 6,5 - - 46 25 74 40 WNW 1010,5 54 0,0
23.02.2020 12:00:00 12,2 8,1 - - 44 24 68 37 WNW 1008,5 12 0,4
23.02.2020 11:00:00 12,6 10,4 - - 44 24 70 38 W 1006,8 0 0,0
23.02.2020 10:00:00 13,0 10,1 - - 55 30 78 42 WSW 1005,2 0 0,0
23.02.2020 09:00:00 12,7 10,2 7,0 7,0 55 30 74 40 WSW 1004,9 0 0,0
23.02.2020 08:00:00 12,0 10,5 - - 52 28 70 38 WSW 1005,0 0 0,8
23.02.2020 07:00:00 8,5 8,5 - - 15 8 - - SSW 1005,8 0 3,6
23.02.2020 06:00:00 6,9 6,8 - - 11 6 - - SSE 1007,0 0 5,0
23.02.2020 05:00:00 6,8 6,6 - - 11 6 - - S 1008,9 0 2,8
23.02.2020 04:00:00 7,2 6,7 - - 15 8 - - SSW 1011,7 0 1,4
23.02.2020 03:00:00 7,2 6,2 - - 18 10 - - SW 1014,3 0 0,6
23.02.2020 02:00:00 7,1 5,8 - - 22 12 46 25 SW 1015,7 0 0,8
23.02.2020 01:00:00 7,8 5,4 - - 34 18 - - SW 1016,7 0 0,0
23.02.2020 00:00:00 8,1 5,3 - - 28 15 - - WSW 1017,4 - 0,0
22.02.2020 23:00:00 8,0 5,3 - - 28 15 - - WSW 1018,2 0 0,0
22.02.2020 22:00:00 7,3 4,4 - - 26 14 - - WSW 1017,4 0 0,0
22.02.2020 21:00:00 7,2 4,8 - - 24 13 - - WSW 1017,5 0 0,0
22.02.2020 20:00:00 7,5 5,7 - - 22 12 - - W 1017,6 0 0,2
22.02.2020 19:00:00 8,4 5,6 - - 22 12 - - W 1017,4 0 0,0
22.02.2020 18:00:00 8,7 6,1 - - 34 18 61 33 W 1016,8 0 0,2
22.02.2020 17:00:00 10,2 5,2 - - 41 22 70 38 W 1015,8 0 0,0
22.02.2020 16:00:00 11,4 3,7 - - 48 26 67 36 W 1014,9 0 0,0
22.02.2020 15:00:00 12,0 3,5 - - 48 26 65 35 W 1014,3 6 0,0
22.02.2020 14:00:00 11,8 4,6 - - 39 21 59 32 W 1013,7 18 0,0
22.02.2020 13:00:00 11,6 4,4 - - 46 25 65 35 W 1013,4 30 0,0
22.02.2020 12:00:00 10,9 5,2 - - 46 25 81 44 W 1013,5 6 0,0
22.02.2020 11:00:00 12,8 7,8 - - 52 28 78 42 W 1012,0 24 0,0
22.02.2020 10:00:00 12,2 8,6 - - 57 31 85 46 WSW 1011,3 24 0,0
22.02.2020 09:00:00 11,1 8,0 6,4 7,0 48 26 76 41 WSW 1011,0 0 0,0
22.02.2020 08:00:00 10,5 7,4 - - 41 22 67 36 SW 1010,4 0 0,0
22.02.2020 07:00:00 10,0 6,9 - - 44 24 65 35 SW 1010,6 0 0,0
22.02.2020 06:00:00 9,2 6,1 - - 39 21 67 36 SW 1010,4 0 0,0
22.02.2020 05:00:00 8,6 5,8 - - 37 20 63 34 SW 1011,4 0 0,0
22.02.2020 04:00:00 8,7 4,9 - - 41 22 59 32 SW 1011,4 0 0,0
22.02.2020 03:00:00 8,7 4,9 - - 41 22 63 34 SW 1011,8 0 0,0
22.02.2020 02:00:00 8,8 4,7 - - 41 22 59 32 SW 1012,6 0 0,0
22.02.2020 01:00:00 8,6 4,7 - - 35 19 55 30 SW 1013,1 0 0,0
22.02.2020 00:00:00 8,6 4,5 - - 35 19 63 34 SW 1014,0 - 0,0
21.02.2020 23:00:00 8,9 4,7 - - 44 24 61 33 SW 1015,2 0 0,0
21.02.2020 22:00:00 8,9 5,0 - - 42 23 57 31 SW 1015,5 0 0,0
21.02.2020 21:00:00 8,9 4,9 - - 37 20 57 31 SW 1015,6 0 0,0
21.02.2020 20:00:00 9,0 4,8 - - 28 15 - - SW 1016,4 0 0,0
21.02.2020 19:00:00 9,0 4,6 - - 24 13 - - SW 1017,3 0 0,0
21.02.2020 18:00:00 9,4 4,3 - - 34 18 50 27 SW 1017,3 0 0,0
21.02.2020 17:00:00 9,2 4,4 - - 34 18 52 28 SW 1017,8 0 0,0
21.02.2020 16:00:00 8,9 4,4 - - 37 20 55 30 SW 1018,3 0 0,0
21.02.2020 15:00:00 8,8 4,4 - - 34 18 52 28 SW 1018,3 0 0,0
21.02.2020 14:00:00 8,4 4,2 - - 37 20 57 31 SW 1018,3 0 0,0

tt = temperature
td = dewpoint
tt -20cm = temperature -20cm
tt -100cm = temperature -100cm
ff = wind speed
fx = gusts
dd = wind direction
ppp = reduced air pressure
sd = sunshine duration
rr = precipitation

Next stations